createdAt,value
2023-07-21T00:02:27.658Z,23.10
2023-07-21T00:05:50.028Z,23.10
2023-07-21T00:09:12.624Z,23.20
2023-07-21T00:12:39.478Z,23.30
2023-07-21T00:16:04.906Z,23.30
2023-07-21T00:19:27.178Z,23.30
2023-07-21T00:22:49.883Z,23.40
2023-07-21T00:26:14.626Z,23.30
2023-07-21T00:29:37.027Z,23.30
2023-07-21T00:33:00.233Z,23.40
2023-07-21T00:36:22.828Z,23.30
2023-07-21T00:39:46.102Z,23.30
2023-07-21T00:43:11.146Z,23.30
2023-07-21T00:46:33.545Z,23.30
2023-07-21T00:49:57.807Z,23.20
2023-07-21T00:53:21.324Z,23.20
2023-07-21T00:56:44.266Z,23.20
2023-07-21T01:00:11.933Z,23.20
2023-07-21T01:03:36.627Z,23.10
2023-07-21T01:07:00.327Z,23.10
2023-07-21T01:10:22.992Z,23.10
2023-07-21T01:13:45.656Z,23.10
2023-07-21T01:17:09.533Z,23.10
2023-07-21T01:20:32.615Z,23.20
2023-07-21T01:24:05.602Z,23.20
2023-07-21T01:27:28.306Z,23.20
2023-07-21T01:30:54.354Z,23.20
2023-07-21T01:34:18.778Z,23.30
2023-07-21T01:37:43.488Z,23.30
2023-07-21T01:41:07.925Z,23.30
2023-07-21T01:44:30.258Z,23.30
2023-07-21T01:47:52.619Z,23.30
2023-07-21T01:51:21.916Z,23.30
2023-07-21T01:54:57.736Z,23.20
2023-07-21T01:58:21.196Z,23.20
2023-07-21T02:01:44.816Z,23.20
2023-07-21T02:05:17.948Z,23.20
2023-07-21T02:08:40.473Z,23.20
2023-07-21T02:12:02.907Z,23.20
2023-07-21T02:15:37.296Z,23.20
2023-07-21T02:18:59.622Z,23.20
2023-07-21T02:22:21.824Z,23.20
2023-07-21T02:25:45.437Z,23.20
2023-07-21T02:29:07.715Z,23.20
2023-07-21T02:32:30.372Z,23.20
2023-07-21T02:35:53.016Z,23.20
2023-07-21T02:39:15.907Z,23.10
2023-07-21T02:42:38.150Z,23.10
2023-07-21T02:46:00.533Z,23.10
2023-07-21T02:49:22.873Z,23.10
2023-07-21T02:52:45.486Z,23.10
2023-07-21T02:56:09.084Z,23.10
2023-07-21T02:59:51.847Z,23.10
2023-07-21T03:03:24.493Z,23.10
2023-07-21T03:06:49.693Z,23.10
2023-07-21T03:10:12.514Z,23.10
2023-07-21T03:13:35.569Z,23.10
2023-07-21T03:16:58.024Z,23.10
2023-07-21T03:20:20.597Z,23.10
2023-07-21T03:23:43.904Z,23.10
2023-07-21T03:27:06.895Z,23.20
2023-07-21T03:30:32.534Z,23.20
2023-07-21T03:34:05.571Z,23.30
2023-07-21T03:37:29.614Z,23.30
2023-07-21T03:41:03.178Z,23.30
2023-07-21T03:44:28.270Z,23.30
2023-07-21T03:47:50.550Z,23.30
2023-07-21T03:51:13.034Z,23.20
2023-07-21T03:54:39.291Z,23.30
2023-07-21T03:58:01.762Z,23.30
2023-07-21T04:01:24.020Z,23.20
2023-07-21T04:04:47.982Z,23.20
2023-07-21T04:08:10.396Z,23.20
2023-07-21T04:11:32.877Z,23.20
2023-07-21T04:14:55.518Z,23.20
2023-07-21T04:18:17.826Z,23.20
2023-07-21T04:21:40.031Z,23.20
2023-07-21T04:25:03.274Z,23.20
2023-07-21T04:28:25.563Z,23.20
2023-07-21T04:31:47.887Z,23.10
2023-07-21T04:35:10.963Z,23.10
2023-07-21T04:38:36.538Z,23.10
2023-07-21T04:42:05.926Z,23.20
2023-07-21T04:45:28.315Z,23.10
2023-07-21T04:49:01.750Z,23.10
2023-07-21T04:52:38.198Z,23.10
2023-07-21T04:56:02.562Z,23.10
2023-07-21T04:59:30.163Z,23.10
2023-07-21T05:02:52.461Z,23.10
2023-07-21T05:06:16.458Z,23.10
2023-07-21T05:09:43.559Z,23.10
2023-07-21T05:13:09.170Z,23.10
2023-07-21T05:16:46.961Z,23.10
2023-07-21T05:20:40.737Z,23.10
2023-07-21T05:24:23.820Z,23.10
2023-07-21T05:27:50.133Z,23.10
2023-07-21T05:31:13.424Z,23.10
2023-07-21T05:34:50.417Z,23.10
2023-07-21T05:38:14.561Z,23.10
2023-07-21T05:41:36.880Z,23.10
2023-07-21T05:44:59.168Z,23.10
2023-07-21T05:48:21.725Z,23.10
2023-07-21T05:51:45.450Z,23.10
2023-07-21T05:55:17.874Z,23.00
2023-07-21T05:58:41.984Z,22.90
2023-07-21T06:02:04.488Z,22.90
2023-07-21T06:05:33.358Z,22.90
2023-07-21T06:09:01.679Z,22.90
2023-07-21T06:12:59.543Z,22.90
2023-07-21T06:16:33.782Z,23.00
2023-07-21T06:19:57.903Z,23.00
2023-07-21T06:23:21.584Z,23.10
2023-07-21T06:26:44.596Z,23.10
2023-07-21T06:30:09.198Z,23.20
2023-07-21T06:33:38.834Z,23.30
2023-07-21T06:37:24.416Z,23.40
2023-07-21T06:41:06.167Z,23.40
2023-07-21T06:44:47.477Z,23.50
2023-07-21T06:48:32.158Z,23.50
2023-07-21T06:52:10.022Z,23.50
2023-07-21T06:55:35.935Z,23.50
2023-07-21T06:58:58.688Z,23.50
2023-07-21T07:02:20.973Z,23.40
2023-07-21T07:05:47.183Z,23.30
2023-07-21T07:09:09.910Z,23.30
2023-07-21T07:12:33.450Z,23.20
2023-07-21T07:15:55.778Z,23.30
2023-07-21T07:19:20.392Z,23.30
2023-07-21T07:22:42.725Z,23.30
2023-07-21T07:26:06.460Z,23.30
2023-07-21T07:29:29.098Z,23.30
2023-07-21T07:32:51.351Z,23.30
2023-07-21T07:36:14.069Z,23.20
2023-07-21T07:39:36.788Z,23.30
2023-07-21T07:42:59.023Z,23.20
2023-07-21T07:46:21.343Z,23.20
2023-07-21T07:49:43.561Z,23.20
2023-07-21T07:53:07.299Z,23.10
2023-07-21T07:56:29.544Z,23.10
2023-07-21T07:59:52.072Z,23.20
2023-07-21T08:03:15.285Z,23.30
2023-07-21T08:06:37.623Z,23.20
2023-07-21T08:10:01.457Z,23.10
2023-07-21T08:13:23.624Z,23.20
2023-07-21T08:16:46.054Z,23.30
2023-07-21T08:20:09.932Z,23.40
2023-07-21T08:23:32.200Z,23.50
2023-07-21T08:26:54.415Z,23.50
2023-07-21T08:30:16.729Z,23.60
2023-07-21T08:33:39.891Z,23.50
2023-07-21T08:37:02.190Z,23.40
2023-07-21T08:40:24.607Z,23.50
2023-07-21T08:43:49.208Z,23.60
2023-07-21T08:47:11.892Z,23.70
2023-07-21T08:50:38.830Z,23.80
2023-07-21T08:54:01.150Z,23.90
2023-07-21T08:57:23.885Z,23.90
2023-07-21T09:00:46.127Z,23.90
2023-07-21T09:04:19.786Z,24.00
2023-07-21T09:07:43.133Z,24.00
2023-07-21T09:11:05.755Z,24.00
2023-07-21T09:14:44.650Z,24.00
2023-07-21T09:18:07.825Z,24.10
2023-07-21T09:21:30.312Z,24.10
2023-07-21T09:24:53.166Z,24.10
2023-07-21T09:28:15.527Z,24.10
2023-07-21T09:31:40.332Z,24.10
2023-07-21T09:35:04.378Z,24.20
2023-07-21T09:38:29.184Z,24.30
2023-07-21T09:41:53.280Z,24.40
2023-07-21T09:45:17.035Z,24.50
2023-07-21T09:48:39.516Z,24.50
2023-07-21T09:52:02.527Z,24.50
2023-07-21T09:55:27.607Z,24.50
2023-07-21T09:58:58.591Z,24.50
2023-07-21T10:02:22.708Z,24.60
2023-07-21T10:05:44.967Z,24.60
2023-07-21T10:09:10.492Z,24.60
2023-07-21T10:12:53.963Z,24.50
2023-07-21T10:16:21.828Z,24.40
2023-07-21T10:19:45.971Z,24.40
2023-07-21T10:23:09.551Z,24.30
2023-07-21T10:26:31.868Z,24.30
2023-07-21T10:30:20.701Z,24.30
2023-07-21T10:33:43.054Z,24.30
2023-07-21T10:37:06.301Z,24.30
2023-07-21T10:40:28.995Z,24.30
2023-07-21T10:43:51.174Z,24.20
2023-07-21T10:47:17.365Z,24.20
2023-07-21T10:50:52.554Z,24.20
2023-07-21T10:54:15.836Z,24.10
2023-07-21T10:57:38.795Z,24.10
2023-07-21T11:01:01.373Z,24.10
2023-07-21T11:04:24.306Z,24.10
2023-07-21T11:07:46.584Z,24.00
2023-07-21T11:11:12.431Z,24.10
2023-07-21T11:14:34.666Z,24.10
2023-07-21T11:18:04.636Z,24.10
2023-07-21T11:21:27.102Z,24.20
2023-07-21T11:25:09.073Z,24.20
2023-07-21T11:28:31.553Z,24.20
2023-07-21T11:31:53.803Z,24.20
2023-07-21T11:35:16.198Z,24.10
2023-07-21T11:38:39.894Z,24.10
2023-07-21T11:42:02.537Z,24.20
2023-07-21T11:45:34.840Z,24.20
2023-07-21T11:48:57.048Z,24.20
2023-07-21T11:52:25.890Z,24.20
2023-07-21T11:55:48.759Z,24.30
2023-07-21T11:59:11.338Z,24.20
2023-07-21T12:02:35.472Z,24.20
2023-07-21T12:05:57.947Z,24.30
2023-07-21T12:09:20.781Z,24.30
2023-07-21T12:12:43.051Z,24.20
2023-07-21T12:16:05.714Z,24.20
2023-07-21T12:19:28.237Z,24.20
2023-07-21T12:22:50.429Z,24.20
2023-07-21T12:26:12.661Z,24.20
2023-07-21T12:29:44.745Z,24.20
2023-07-21T12:33:08.407Z,24.20
2023-07-21T12:36:30.791Z,24.20
2023-07-21T12:39:53.309Z,24.30
2023-07-21T12:43:15.504Z,24.30
2023-07-21T12:46:37.790Z,24.30
2023-07-21T12:50:00.290Z,24.30
2023-07-21T12:53:22.589Z,24.30
2023-07-21T12:56:45.037Z,24.30
2023-07-21T13:00:08.383Z,24.30
2023-07-21T13:03:30.943Z,24.30
2023-07-21T13:06:55.088Z,24.40
2023-07-21T13:10:17.486Z,24.40
2023-07-21T13:13:42.119Z,24.40
2023-07-21T13:17:05.121Z,24.40
2023-07-21T13:20:27.499Z,24.30
2023-07-21T13:23:49.738Z,24.30
2023-07-21T13:27:11.958Z,24.30
2023-07-21T13:30:34.196Z,24.30
2023-07-21T13:33:57.434Z,24.40
2023-07-21T13:37:19.960Z,24.40
2023-07-21T13:40:42.198Z,24.40
2023-07-21T13:44:04.494Z,24.40
2023-07-21T13:47:26.895Z,24.40
2023-07-21T13:50:49.284Z,24.40
2023-07-21T13:54:14.205Z,24.40
2023-07-21T13:57:36.797Z,24.40
2023-07-21T14:00:59.164Z,24.40
2023-07-21T14:04:21.433Z,24.40
2023-07-21T14:07:45.760Z,24.40
2023-07-21T14:11:09.938Z,24.40
2023-07-21T14:14:32.220Z,24.40
2023-07-21T14:17:54.488Z,24.40
2023-07-21T14:21:16.802Z,24.40
2023-07-21T14:24:39.154Z,24.40
2023-07-21T14:28:01.884Z,24.40
2023-07-21T14:31:24.221Z,24.40
2023-07-21T14:34:46.524Z,24.50
2023-07-21T14:38:10.626Z,24.50
2023-07-21T14:41:33.535Z,24.50
2023-07-21T14:44:55.874Z,24.50
2023-07-21T14:48:20.925Z,24.50
2023-07-21T14:51:43.893Z,24.50
2023-07-21T14:55:10.201Z,24.60
2023-07-21T14:58:32.516Z,24.50
2023-07-21T15:01:56.614Z,24.50
2023-07-21T15:05:19.631Z,24.50
2023-07-21T15:08:41.843Z,24.50
2023-07-21T15:12:05.182Z,24.50
2023-07-21T15:15:27.477Z,24.60
2023-07-21T15:18:49.701Z,24.50
2023-07-21T15:22:12.132Z,24.50
2023-07-21T15:25:34.385Z,24.40
2023-07-21T15:28:56.774Z,24.40
2023-07-21T15:32:19.119Z,24.40
2023-07-21T15:35:46.423Z,24.40
2023-07-21T15:39:08.878Z,24.40
2023-07-21T15:42:31.083Z,24.50
2023-07-21T15:45:53.600Z,24.40
2023-07-21T15:49:15.811Z,24.40
2023-07-21T15:52:44.543Z,24.40
2023-07-21T15:56:07.179Z,24.40
2023-07-21T15:59:29.379Z,24.40
2023-07-21T16:02:51.652Z,24.40
2023-07-21T16:06:13.945Z,24.40
2023-07-21T16:09:36.181Z,24.30
2023-07-21T16:12:58.501Z,24.30
2023-07-21T16:16:21.421Z,24.40
2023-07-21T16:19:43.800Z,24.40
2023-07-21T16:23:06.444Z,24.40
2023-07-21T16:26:30.213Z,24.40
2023-07-21T16:29:54.127Z,24.30
2023-07-21T16:33:16.413Z,24.20
2023-07-21T16:36:38.779Z,24.20
2023-07-21T16:40:01.774Z,24.20
2023-07-21T16:43:24.425Z,24.10
2023-07-21T16:46:46.764Z,24.10
2023-07-21T16:50:10.481Z,24.10
2023-07-21T16:53:32.699Z,24.10
2023-07-21T16:56:54.947Z,24.10
2023-07-21T17:00:19.509Z,24.20
2023-07-21T17:03:42.404Z,24.20
2023-07-21T17:07:05.293Z,24.20
2023-07-21T17:10:27.556Z,24.20
2023-07-21T17:13:49.798Z,24.20
2023-07-21T17:17:12.106Z,24.20
2023-07-21T17:20:34.553Z,24.10
2023-07-21T17:23:56.817Z,24.10
2023-07-21T17:27:19.030Z,24.10
2023-07-21T17:30:41.513Z,24.10
2023-07-21T17:34:03.714Z,24.00
2023-07-21T17:37:26.035Z,24.00
2023-07-21T17:41:01.248Z,23.90
2023-07-21T17:44:24.226Z,23.90
2023-07-21T17:47:47.707Z,24.00
2023-07-21T17:51:10.118Z,24.10
2023-07-21T17:54:32.388Z,24.10
2023-07-21T17:57:55.275Z,24.10
2023-07-21T18:01:17.630Z,24.10
2023-07-21T18:04:40.818Z,24.00
2023-07-21T18:08:04.504Z,24.00
2023-07-21T18:11:26.962Z,23.90
2023-07-21T18:14:52.577Z,23.90
2023-07-21T18:18:15.165Z,23.90
2023-07-21T18:21:37.402Z,23.80
2023-07-21T18:25:00.071Z,23.80
2023-07-21T18:28:22.312Z,23.80
2023-07-21T18:31:44.652Z,23.70
2023-07-21T18:35:07.385Z,23.70
2023-07-21T18:38:29.608Z,23.70
2023-07-21T18:41:51.789Z,23.70
2023-07-21T18:45:14.069Z,23.70
2023-07-21T18:48:36.418Z,23.70
2023-07-21T18:51:58.680Z,23.60
2023-07-21T18:55:21.486Z,23.60
2023-07-21T18:58:43.724Z,23.50
2023-07-21T19:02:06.615Z,23.50
2023-07-21T19:05:28.928Z,23.50
2023-07-21T19:08:51.761Z,23.40
2023-07-21T19:12:14.019Z,23.40
2023-07-21T19:15:38.212Z,23.40
2023-07-21T19:19:00.493Z,23.40
2023-07-21T19:22:22.735Z,23.30
2023-07-21T19:25:52.329Z,23.30
2023-07-21T19:29:14.542Z,23.20
2023-07-21T19:32:36.820Z,23.20
2023-07-21T19:35:59.119Z,23.20
2023-07-21T19:39:21.361Z,23.10
2023-07-21T19:42:43.535Z,23.10
2023-07-21T19:46:05.793Z,23.30
2023-07-21T19:49:28.003Z,23.50
2023-07-21T19:52:50.582Z,23.60
2023-07-21T19:56:14.423Z,23.70
2023-07-21T19:59:36.627Z,23.70
2023-07-21T20:02:59.355Z,23.80
2023-07-21T20:06:21.608Z,23.80
2023-07-21T20:09:43.785Z,23.90
2023-07-21T20:13:06.117Z,23.90
2023-07-21T20:16:28.499Z,23.90
2023-07-21T20:19:50.783Z,23.90
2023-07-21T20:23:13.060Z,23.90
2023-07-21T20:26:35.380Z,23.90
2023-07-21T20:29:57.602Z,23.90
2023-07-21T20:33:19.997Z,23.90
2023-07-21T20:36:44.019Z,23.90
2023-07-21T20:40:07.483Z,23.90
2023-07-21T20:43:29.817Z,24.00
2023-07-21T20:46:52.789Z,23.90
2023-07-21T20:50:15.276Z,23.90
2023-07-21T20:53:37.811Z,23.90
2023-07-21T20:57:00.002Z,23.90
2023-07-21T21:00:24.463Z,23.90
2023-07-21T21:03:47.057Z,23.90
2023-07-21T21:07:09.543Z,23.90
2023-07-21T21:10:31.781Z,23.90
2023-07-21T21:13:54.001Z,23.90
2023-07-21T21:17:16.294Z,23.90
2023-07-21T21:20:38.700Z,23.90
2023-07-21T21:24:00.956Z,23.90
2023-07-21T21:27:23.272Z,23.90
2023-07-21T21:30:45.521Z,23.90
2023-07-21T21:34:07.759Z,23.90
2023-07-21T21:37:29.966Z,23.80
2023-07-21T21:40:55.068Z,23.80
2023-07-21T21:44:17.956Z,23.90
2023-07-21T21:47:40.305Z,23.90
2023-07-21T21:51:02.550Z,23.80
2023-07-21T21:54:24.831Z,23.90
2023-07-21T21:57:47.151Z,23.90
2023-07-21T22:01:10.195Z,23.90
2023-07-21T22:04:32.539Z,23.90
2023-07-21T22:07:54.762Z,23.90
2023-07-21T22:11:16.965Z,23.90
2023-07-21T22:14:54.550Z,23.80
2023-07-21T22:18:18.091Z,23.80
2023-07-21T22:21:40.405Z,23.70
2023-07-21T22:25:02.978Z,23.70
2023-07-21T22:28:25.311Z,23.70
2023-07-21T22:31:49.757Z,23.70
2023-07-21T22:35:11.998Z,23.70
2023-07-21T22:38:35.118Z,23.60
2023-07-21T22:41:57.349Z,23.70
2023-07-21T22:45:19.641Z,23.70
2023-07-21T22:48:41.912Z,23.70
2023-07-21T22:52:04.894Z,23.70
2023-07-21T22:55:27.215Z,23.70
2023-07-21T22:58:49.406Z,23.60
2023-07-21T23:02:11.639Z,23.60
2023-07-21T23:05:33.931Z,23.60
2023-07-21T23:08:56.209Z,23.60
2023-07-21T23:12:18.653Z,23.60
2023-07-21T23:15:40.950Z,23.60
2023-07-21T23:19:03.233Z,23.60
2023-07-21T23:22:25.581Z,23.60
2023-07-21T23:25:48.650Z,23.60
2023-07-21T23:29:11.127Z,23.50
2023-07-21T23:32:33.384Z,23.50
2023-07-21T23:35:55.822Z,23.50
2023-07-21T23:39:18.078Z,23.50
2023-07-21T23:42:45.297Z,23.50
2023-07-21T23:46:07.540Z,23.50
2023-07-21T23:49:29.797Z,23.50
2023-07-21T23:52:52.119Z,23.50
2023-07-21T23:56:14.321Z,23.50
2023-07-21T23:59:36.489Z,23.50
